Time;durP1;ratioP1;P1;durP2;ratioP2;P2;SDS_P1;SDS_P2;PMS_P1;PMS_P2;Temp;Humidity;BMP_temperature;BMP_pressure;BME280_temperature;BME280_humidity;BME280_pressure;Samples;Min_cycle;Max_cycle;Signal;HPM_P1;HPM_P2
2022/10/29 00:01:17;;;;;;;;;;;15.40;63.40;;;11.01;100.00;96419.16;4973389;28;19909;-51
2022/10/29 00:03:49;;;;;;;;;;;15.40;63.40;;;10.95;100.00;96423.63;4955411;28;20261;-49
2022/10/29 00:06:17;;;;;;;;;;;15.40;63.30;;;10.92;100.00;96432.09;4955821;28;19916;-48
2022/10/29 00:08:43;;;;;;;;;;;15.30;63.30;;;10.93;100.00;96431.03;4980632;28;19918;-50
2022/10/29 00:11:11;;;;;;;;;;;15.30;63.30;;;10.93;100.00;96419.59;4974725;28;19910;-48
2022/10/29 00:13:38;;;;;;;;;;;15.30;63.40;;;10.96;100.00;96424.41;4991943;28;20396;-51
2022/10/29 00:16:10;;;;;;;;;;;15.30;63.50;;;10.96;100.00;96427.88;4974739;28;19917;-48
2022/10/29 00:18:40;;;;;;;;;;;15.30;63.60;;;11.01;100.00;96429.84;4991090;28;20004;-47
2022/10/29 00:21:14;;;;;;;;;;;15.30;63.60;;;11.02;100.00;96418.09;4973826;28;19948;-46
2022/10/29 00:23:46;;;;;;;;;;;15.30;63.60;;;11.02;100.00;96402.91;4990861;28;19909;-49
2022/10/29 00:26:14;;;;;;;;;;;15.30;63.70;;;11.08;100.00;96411.78;4954447;28;19948;-52
2022/10/29 00:28:49;;;;;;;;;;;15.30;63.70;;;11.10;100.00;96410.50;4954703;28;19910;-50
2022/10/29 00:31:17;;;;;;;;;;;15.40;63.80;;;11.15;100.00;96415.06;4964129;28;19949;-51
2022/10/29 00:33:45;;;;;;;;;;;15.40;64.00;;;11.17;100.00;96412.97;4980954;28;19914;-47
2022/10/29 00:36:15;;;;;;;;;;;15.40;63.90;;;11.24;100.00;96412.78;4972174;28;19937;-48
2022/10/29 00:38:42;;;;;;;;;;;15.40;64.80;;;11.26;100.00;96402.69;4961655;28;19910;-48
2022/10/29 00:41:18;;;;;;;;;;;15.50;64.10;;;11.26;100.00;96406.16;4974615;28;19920;-47
2022/10/29 00:44:17;;;;;;;;;;;15.50;64.10;;;11.29;100.00;96404.84;4973725;28;19913;-49
2022/10/29 00:46:51;;;;;;;;;;;15.50;64.10;;;11.32;100.00;96405.16;4989731;28;20356;-50
2022/10/29 00:49:21;;;;;;;;;;;15.50;64.10;;;11.36;100.00;96418.81;4960812;28;19921;-49
2022/10/29 00:51:48;;;;;;;;;;;15.60;64.20;;;11.37;100.00;96427.59;4971092;28;20020;-50
2022/10/29 00:54:23;;;;;;;;;;;15.60;64.20;;;11.39;100.00;96426.31;4990248;28;20283;-46
2022/10/29 00:56:59;;;;;;;;;;;15.60;64.20;;;11.41;100.00;96423.41;4972950;28;19909;-52
2022/10/29 00:59:26;;;;;;;;;;;15.70;64.30;;;11.43;100.00;96421.28;4970914;28;19914;-48
2022/10/29 01:01:52;;;;;;;;;;;15.60;64.20;;;11.46;100.00;96412.78;4962520;28;19914;-54
2022/10/29 01:04:22;;;;;;;;;;;15.70;64.30;;;11.51;100.00;96420.84;4973058;28;20012;-48
2022/10/29 01:06:52;;;;;;;;;;;15.70;64.30;;;11.52;100.00;96411.78;4954843;28;19913;-47
2022/10/29 01:09:26;;;;;;;;;;;15.70;64.30;;;11.56;100.00;96413.72;4963488;28;19941;-50
2022/10/29 01:12:47;;;;;;;;;;;15.80;64.40;;;11.57;100.00;96415.31;4958665;28;19917;-51
2022/10/29 01:15:35;;;;;;;;;;;15.80;64.30;;;11.60;100.00;96410.53;4963118;28;19945;-50
2022/10/29 01:18:20;;;;;;;;;;;15.80;64.30;;;11.61;100.00;96412.16;4944807;28;20335;-51
2022/10/29 01:21:19;;;;;;;;;;;15.80;64.40;;;11.65;100.00;96407.91;4954362;28;19918;-49
2022/10/29 01:24:41;;;;;;;;;;;15.90;64.40;;;11.68;100.00;96408.22;4984206;28;19910;-51
2022/10/29 01:28:02;;;;;;;;;;;15.90;64.50;;;11.70;100.00;96410.66;4985025;28;20017;-50
2022/10/29 01:31:04;;;;;;;;;;;15.90;64.50;;;11.71;100.00;96404.25;4951476;28;20421;-51
2022/10/29 01:34:09;;;;;;;;;;;15.90;64.60;;;11.73;100.00;96400.25;4965095;28;20362;-47
2022/10/29 01:37:21;;;;;;;;;;;15.90;64.50;;;11.74;100.00;96401.06;4971576;28;19925;-53
2022/10/29 01:40:22;;;;;;;;;;;16.00;64.60;;;11.78;100.00;96386.97;4949882;28;19914;-47
2022/10/29 01:43:12;;;;;;;;;;;16.00;64.60;;;11.79;100.00;96390.44;4952260;28;19914;-47
2022/10/29 01:46:09;;;;;;;;;;;16.00;64.50;;;11.79;100.00;96387.78;4967361;28;19968;-48
2022/10/29 01:48:46;;;;;;;;;;;16.00;64.50;;;11.80;100.00;96381.38;4985409;28;19910;-49
2022/10/29 01:51:29;;;;;;;;;;;16.00;64.40;;;11.86;100.00;96383.06;4968586;28;20349;-49
2022/10/29 01:54:04;;;;;;;;;;;16.10;64.50;;;11.90;100.00;96381.50;4987853;28;20312;-48
2022/10/29 01:56:30;;;;;;;;;;;16.10;64.50;;;11.97;100.00;96379.44;4981573;28;19910;-47
2022/10/29 01:59:00;;;;;;;;;;;16.20;64.50;;;12.00;99.05;96378.09;4983703;28;19916;-56
2022/10/29 02:02:04;;;;;;;;;;;16.20;64.40;;;12.02;98.77;96384.81;4965355;28;19910;-53
2022/10/29 02:05:10;;;;;;;;;;;16.20;64.30;;;12.02;98.36;96368.00;4989166;28;19917;-52
2022/10/29 02:07:57;;;;;;;;;;;16.30;64.30;;;12.00;97.72;96362.09;4955504;28;19991;-54
2022/10/29 02:10:54;;;;;;;;;;;16.20;64.10;;;12.00;96.43;96368.25;4970745;28;20343;-49
2022/10/29 02:13:30;;;;;;;;;;;16.20;64.10;;;12.10;94.13;96366.72;4962260;28;19914;-47
2022/10/29 02:16:08;;;;;;;;;;;16.30;64.20;;;12.16;93.87;96361.19;4972488;28;19917;-48
2022/10/29 02:18:48;;;;;;;;;;;16.30;64.10;;;12.21;94.13;96363.88;4973166;28;19917;-49
2022/10/29 02:21:20;;;;;;;;;;;16.30;64.00;;;12.19;92.39;96362.50;4956245;28;19916;-49
2022/10/29 02:23:46;;;;;;;;;;;16.40;64.00;;;12.23;92.99;96361.75;4974708;28;20008;-47
2022/10/29 02:26:15;;;;;;;;;;;16.40;64.00;;;12.23;92.60;96366.31;4972376;28;20329;-47
2022/10/29 02:28:41;;;;;;;;;;;16.40;63.80;;;12.23;92.34;96363.63;4969525;28;20013;-47
2022/10/29 02:31:10;;;;;;;;;;;16.40;63.80;;;12.24;91.64;96354.53;4954054;28;19921;-51
2022/10/29 02:33:39;;;;;;;;;;;16.40;63.60;;;12.23;92.14;96359.09;4953640;28;19922;-50
2022/10/29 02:36:05;;;;;;;;;;;16.50;63.60;;;12.22;92.43;96353.97;4955344;28;19914;-53
2022/10/29 02:38:34;;;;;;;;;;;16.50;63.50;;;12.23;91.21;96355.63;4960091;28;20289;-51
2022/10/29 02:41:00;;;;;;;;;;;16.50;63.40;;;12.22;90.14;96357.50;4973287;28;19963;-55
2022/10/29 02:43:25;;;;;;;;;;;16.50;63.40;;;12.26;91.32;96355.91;4974557;28;19909;-49
2022/10/29 02:46:29;;;;;;;;;;;16.50;63.30;;;12.24;91.28;96363.34;4956220;28;19921;-49
2022/10/29 02:48:55;;;;;;;;;;;16.50;63.30;;;12.22;90.77;96354.81;4965804;28;20365;-49
2022/10/29 02:51:29;;;;;;;;;;;16.50;63.20;;;12.25;91.04;96356.16;4972788;28;19909;-47
2022/10/29 02:54:03;;;;;;;;;;;16.50;63.20;;;12.22;90.13;96362.00;4974403;28;19964;-47
2022/10/29 02:56:29;;;;;;;;;;;16.40;63.00;;;12.19;90.76;96355.31;4968394;28;20299;-52
2022/10/29 02:58:55;;;;;;;;;;;16.40;63.00;;;12.19;91.17;96357.16;4982848;28;19909;-50
2022/10/29 03:01:20;;;;;;;;;;;16.40;63.00;;;12.16;91.36;96355.84;4973589;28;19909;-47
2022/10/29 03:03:49;;;;;;;;;;;16.30;62.90;;;12.06;92.01;96357.59;4972473;28;19917;-47
2022/10/29 03:06:19;;;;;;;;;;;16.30;62.90;;;11.97;92.72;96360.75;4966144;28;19916;-49
2022/10/29 03:08:46;;;;;;;;;;;16.20;62.90;;;11.90;92.89;96346.00;4978760;23;19928;-48
2022/10/29 03:11:15;;;;;;;;;;;16.10;62.80;;;11.78;93.27;96344.28;4966436;28;19921;-48
2022/10/29 03:13:41;;;;;;;;;;;16.10;62.90;;;11.77;93.35;96347.97;4952769;28;20001;-52
2022/10/29 03:16:07;;;;;;;;;;;16.00;62.90;;;11.72;93.10;96347.13;4972680;28;19951;-50
2022/10/29 03:18:33;;;;;;;;;;;15.90;62.90;;;11.62;93.92;96334.50;4972371;28;19917;-48
2022/10/29 03:21:02;;;;;;;;;;;15.90;63.00;;;11.49;94.28;96341.03;4961547;28;19978;-48
2022/10/29 03:23:31;;;;;;;;;;;15.80;63.00;;;11.44;94.27;96337.50;4954672;28;19921;-48
2022/10/29 03:26:00;;;;;;;;;;;15.80;63.10;;;11.42;94.12;96339.66;4952283;28;20483;-49
2022/10/29 03:28:27;;;;;;;;;;;15.70;63.10;;;11.32;94.38;96340.34;4952880;28;19910;-48
2022/10/29 03:30:56;;;;;;;;;;;15.60;63.00;;;11.19;95.22;96341.53;4954432;28;19957;-51
2022/10/29 03:33:26;;;;;;;;;;;15.60;63.20;;;11.09;95.03;96344.06;4952112;28;20004;-50
2022/10/29 03:35:59;;;;;;;;;;;15.50;63.20;;;10.99;95.41;96342.09;4954606;28;19924;-52
2022/10/29 03:38:26;;;;;;;;;;;15.40;63.10;;;10.89;95.05;96339.31;4957295;28;19933;-49
2022/10/29 03:40:59;;;;;;;;;;;15.30;63.10;;;10.75;95.91;96346.88;4972440;28;19914;-48
2022/10/29 03:43:27;;;;;;;;;;;15.20;63.10;;;10.62;97.14;96333.88;4973730;28;19917;-48
2022/10/29 03:45:57;;;;;;;;;;;15.10;63.10;;;10.55;97.30;96338.59;4942637;28;19910;-49
2022/10/29 03:48:24;;;;;;;;;;;15.00;63.20;;;10.50;97.02;96342.00;4954028;28;19917;-50
2022/10/29 03:51:00;;;;;;;;;;;14.90;63.20;;;10.40;97.31;96332.03;4951206;28;19910;-52
2022/10/29 03:53:27;;;;;;;;;;;14.80;63.30;;;10.31;97.61;96336.16;4949612;28;20388;-51
2022/10/29 03:55:55;;;;;;;;;;;14.80;63.50;;;10.29;97.99;96340.09;4947162;28;20080;-49
2022/10/29 03:58:25;;;;;;;;;;;14.70;63.50;;;10.21;97.70;96335.94;4936627;28;19964;-53
2022/10/29 04:01:06;;;;;;;;;;;14.60;64.00;;;10.16;97.69;96344.69;4952591;28;20277;-51
2022/10/29 04:03:34;;;;;;;;;;;14.60;63.60;;;10.11;98.02;96333.13;4948002;28;20435;-48
2022/10/29 04:06:14;;;;;;;;;;;14.50;63.80;;;10.10;97.90;96329.66;4966614;28;20435;-47
2022/10/29 04:08:41;;;;;;;;;;;14.50;63.80;;;10.09;97.54;96335.22;4937638;28;20344;-52
2022/10/29 04:11:11;;;;;;;;;;;14.40;64.30;;;10.03;97.61;96330.88;4971913;28;19910;-49
2022/10/29 04:13:40;;;;;;;;;;;14.40;63.80;;;9.96;97.85;96334.53;4972286;28;19913;-50
2022/10/29 04:16:06;;;;;;;;;;;14.40;63.90;;;9.89;98.28;96339.19;4960562;28;19960;-48
2022/10/29 04:18:31;;;;;;;;;;;14.30;63.90;;;9.87;98.76;96335.97;4972590;28;19949;-49
2022/10/29 04:21:03;;;;;;;;;;;14.30;64.00;;;9.81;98.83;96334.28;4951134;28;19965;-49
2022/10/29 04:23:35;;;;;;;;;;;14.20;63.90;;;9.77;99.02;96330.47;4968506;28;20008;-49
2022/10/29 04:26:01;;;;;;;;;;;14.20;64.00;;;9.73;100.00;96327.47;4967923;28;19957;-49
2022/10/29 04:28:26;;;;;;;;;;;14.10;64.00;;;9.72;99.79;96331.19;4966666;28;19961;-51
2022/10/29 04:30:52;;;;;;;;;;;14.10;64.10;;;9.73;99.68;96337.31;4952325;28;19918;-48
2022/10/29 04:33:19;;;;;;;;;;;14.10;64.20;;;9.73;99.55;96324.00;4982442;28;20392;-50
2022/10/29 04:35:54;;;;;;;;;;;14.10;64.30;;;9.69;99.64;96330.88;4971967;28;19960;-52
2022/10/29 04:38:20;;;;;;;;;;;14.00;64.30;;;9.60;100.00;96330.44;4970129;28;19999;-54
2022/10/29 04:40:46;;;;;;;;;;;14.00;64.30;;;9.59;99.99;96336.00;4968286;28;19914;-53
2022/10/29 04:43:15;;;;;;;;;;;14.00;64.30;;;9.54;100.00;96326.09;4969513;28;19956;-47
2022/10/29 04:45:52;;;;;;;;;;;13.90;64.30;;;9.50;100.00;96327.63;4966922;28;19910;-50
2022/10/29 04:48:22;;;;;;;;;;;13.90;64.30;;;9.51;100.00;96331.88;4982898;28;20403;-48
2022/10/29 04:51:00;;;;;;;;;;;13.90;64.40;;;9.54;100.00;96331.41;4963830;28;19919;-49
2022/10/29 04:53:26;;;;;;;;;;;13.80;64.50;;;9.54;100.00;96341.25;4972230;28;19914;-49
2022/10/29 04:56:04;;;;;;;;;;;13.80;64.50;;;9.50;100.00;96335.59;4971623;28;19913;-51
2022/10/29 04:58:30;;;;;;;;;;;13.80;64.60;;;9.46;100.00;96337.94;4980737;28;19909;-47
2022/10/29 05:01:08;;;;;;;;;;;13.80;64.60;;;9.43;100.00;96343.72;4990471;28;19987;-52
2022/10/29 05:03:34;;;;;;;;;;;13.80;64.50;;;9.42;100.00;96339.44;4990246;28;19916;-52
2022/10/29 05:06:05;;;;;;;;;;;13.80;64.60;;;9.43;100.00;96343.72;4979748;28;19914;-47
2022/10/29 05:08:32;;;;;;;;;;;13.70;64.50;;;9.32;100.00;96343.78;4965775;28;19932;-53
2022/10/29 05:11:03;;;;;;;;;;;13.70;64.60;;;9.26;100.00;96341.00;4971423;28;20296;-54
2022/10/29 05:13:32;;;;;;;;;;;13.70;64.50;;;9.16;100.00;96345.34;4967145;28;19968;-50
2022/10/29 05:15:59;;;;;;;;;;;13.70;64.50;;;9.13;100.00;96341.28;4964962;28;19914;-51
2022/10/29 05:18:28;;;;;;;;;;;13.60;64.50;;;9.13;100.00;96332.53;4961682;28;20404;-51
2022/10/29 05:20:55;;;;;;;;;;;13.50;65.30;;;9.14;100.00;96336.78;4967229;28;19910;-48
2022/10/29 05:23:33;;;;;;;;;;;13.50;64.70;;;9.14;100.00;96336.78;4968488;28;20340;-52
2022/10/29 05:26:02;;;;;;;;;;;13.50;64.80;;;9.14;100.00;96334.13;4951420;28;20038;-49
2022/10/29 05:28:28;;;;;;;;;;;13.50;64.90;;;9.14;100.00;96334.94;4979194;28;19913;-51
2022/10/29 05:30:59;;;;;;;;;;;13.50;65.00;;;9.14;100.00;96331.47;4976854;28;19917;-50
2022/10/29 05:33:28;;;;;;;;;;;13.50;65.00;;;9.15;100.00;96330.41;4969533;28;20388;-48
2022/10/29 05:35:54;;;;;;;;;;;13.50;65.00;;;9.13;100.00;96332.53;4971878;28;19916;-52
2022/10/29 05:38:19;;;;;;;;;;;13.50;65.00;;;9.12;100.00;96336.19;4969117;28;19918;-53
2022/10/29 05:40:45;;;;;;;;;;;13.50;65.00;;;9.11;100.00;96329.28;4966186;28;19937;-52
2022/10/29 05:43:16;;;;;;;;;;;13.50;65.10;;;9.09;100.00;96331.34;4948537;28;19918;-51
2022/10/29 05:45:43;;;;;;;;;;;13.50;65.10;;;9.08;100.00;96327.91;4977197;28;19909;-48
2022/10/29 05:48:10;;;;;;;;;;;13.50;65.10;;;9.10;100.00;96331.13;4976217;28;20025;-48
2022/10/29 05:50:36;;;;;;;;;;;13.50;65.10;;;9.06;100.00;96330.00;4953056;28;20353;-51
2022/10/29 05:53:09;;;;;;;;;;;13.40;65.10;;;9.08;100.00;96332.41;4971356;28;19980;-48
2022/10/29 05:55:35;;;;;;;;;;;13.50;65.10;;;9.07;100.00;96328.94;4968469;28;19918;-48
2022/10/29 05:58:05;;;;;;;;;;;13.50;65.10;;;9.07;100.00;96330.81;4969136;28;19914;-49
2022/10/29 06:00:34;;;;;;;;;;;13.50;65.20;;;9.07;100.00;96325.50;4971291;28;19918;-47
2022/10/29 06:03:00;;;;;;;;;;;13.40;65.10;;;9.02;100.00;96328.84;4960233;28;20021;-47
2022/10/29 06:05:26;;;;;;;;;;;13.40;65.10;;;9.01;100.00;96328.03;4961283;28;20001;-48
2022/10/29 06:07:59;;;;;;;;;;;13.40;65.10;;;9.02;100.00;96331.50;4951190;28;19914;-50
2022/10/29 06:10:27;;;;;;;;;;;13.40;65.10;;;9.07;100.00;96333.47;4983505;28;19925;-51
2022/10/29 06:12:54;;;;;;;;;;;13.40;65.20;;;9.07;100.00;96336.94;4972618;28;19922;-46
2022/10/29 06:15:21;;;;;;;;;;;13.40;65.20;;;9.10;100.00;96336.44;4967182;28;19910;-49
2022/10/29 06:17:48;;;;;;;;;;;13.50;65.30;;;9.15;100.00;96333.06;4946343;28;20262;-48
2022/10/29 06:20:19;;;;;;;;;;;13.50;65.30;;;9.18;100.00;96332.59;4963410;28;19914;-53
2022/10/29 06:22:58;;;;;;;;;;;13.50;65.30;;;9.22;100.00;96333.75;4966932;28;20004;-50
2022/10/29 06:25:26;;;;;;;;;;;13.60;65.20;;;9.24;100.00;96326.34;4970758;28;19932;-48
2022/10/29 06:28:04;;;;;;;;;;;13.60;65.20;;;9.29;100.00;96333.63;4965487;28;20604;-50
2022/10/29 06:30:32;;;;;;;;;;;13.70;65.30;;;9.31;100.00;96329.69;4946297;29;19910;-51
2022/10/29 06:32:59;;;;;;;;;;;13.70;65.20;;;9.35;100.00;96333.47;4946876;28;20005;-48
2022/10/29 06:35:29;;;;;;;;;;;13.80;65.30;;;9.41;100.00;96335.19;4975727;28;19932;-51
2022/10/29 06:37:54;;;;;;;;;;;13.90;65.20;;;9.44;100.00;96333.91;4972215;28;19968;-49
2022/10/29 06:40:23;;;;;;;;;;;13.90;65.20;;;9.49;100.00;96334.81;4974096;28;19913;-49
2022/10/29 06:43:00;;;;;;;;;;;13.90;65.10;;;9.56;100.00;96328.50;4970617;28;19977;-50
2022/10/29 06:45:28;;;;;;;;;;;14.00;65.10;;;9.61;100.00;96331.25;4967466;28;19916;-51
2022/10/29 06:47:57;;;;;;;;;;;14.10;65.10;;;9.66;100.00;96334.00;4968041;28;19924;-49
2022/10/29 06:50:27;;;;;;;;;;;14.20;65.00;;;9.73;100.00;96324.81;4973130;28;20012;-49
2022/10/29 06:53:02;;;;;;;;;;;14.30;65.00;;;9.84;100.00;96332.97;4973894;28;20391;-52
2022/10/29 06:55:29;;;;;;;;;;;14.40;65.00;;;9.91;100.00;96333.63;4974192;28;19917;-49
2022/10/29 06:58:04;;;;;;;;;;;14.40;64.90;;;10.02;100.00;96338.06;4958959;28;19909;-48
2022/10/29 07:00:32;;;;;;;;;;;14.50;65.00;;;10.07;100.00;96337.34;4968821;28;19910;-48
2022/10/29 07:02:58;;;;;;;;;;;14.60;64.90;;;10.14;100.00;96337.97;4969215;28;20331;-50
2022/10/29 07:05:32;;;;;;;;;;;14.70;64.90;;;10.19;100.00;96338.88;4953914;28;20261;-49
2022/10/29 07:08:00;;;;;;;;;;;14.80;64.80;;;10.29;100.00;96348.09;4946856;28;19949;-48
2022/10/29 07:10:29;;;;;;;;;;;14.90;64.80;;;10.37;100.00;96345.81;4965627;28;19918;-49
2022/10/29 07:12:55;;;;;;;;;;;15.10;64.70;;;10.49;100.00;96347.56;4973605;28;19921;-48
2022/10/29 07:15:22;;;;;;;;;;;15.20;64.60;;;10.59;100.00;96358.34;4961732;28;20012;-48
2022/10/29 07:18:03;;;;;;;;;;;15.30;64.60;;;10.71;100.00;96350.25;4973657;28;20347;-48
2022/10/29 07:20:36;;;;;;;;;;;15.50;64.50;;;10.87;100.00;96354.72;4966451;28;19981;-48
2022/10/29 07:23:03;;;;;;;;;;;15.70;64.50;;;11.04;100.00;96352.03;4960014;28;20437;-48
2022/10/29 07:25:33;;;;;;;;;;;15.80;64.30;;;11.20;100.00;96356.47;4991512;28;19963;-49
2022/10/29 07:28:38;;;;;;;;;;;16.00;64.40;;;11.39;100.00;96361.50;4968479;28;19914;-48
2022/10/29 07:31:19;;;;;;;;;;;16.20;64.30;;;11.63;99.62;96357.47;4965436;28;19910;-52
2022/10/29 07:33:50;;;;;;;;;;;16.40;64.10;;;11.83;99.48;96359.53;4967944;28;20391;-52
2022/10/29 07:36:23;;;;;;;;;;;16.60;64.10;;;12.02;99.22;96357.31;4967393;28;19913;-53
2022/10/29 07:38:49;;;;;;;;;;;16.80;64.00;;;12.20;98.54;96358.78;4967474;28;20265;-50
2022/10/29 07:41:17;;;;;;;;;;;17.00;63.90;;;12.36;97.82;96360.50;4965052;28;19917;-48
2022/10/29 07:43:43;;;;;;;;;;;17.20;63.80;;;12.50;96.56;96364.38;4972356;28;19982;-55
2022/10/29 07:46:11;;;;;;;;;;;17.50;63.70;;;12.71;96.75;96361.81;4969619;28;19938;-53
2022/10/29 07:48:37;;;;;;;;;;;17.70;63.50;;;12.94;94.82;96363.25;4968029;28;19910;-48
2022/10/29 07:51:09;;;;;;;;;;;18.00;64.10;;;13.21;94.76;96352.41;4969995;28;19909;-50
2022/10/29 07:53:38;;;;;;;;;;;18.30;63.10;;;13.53;92.98;96354.13;4992315;28;19913;-48
2022/10/29 07:56:12;;;;;;;;;;;18.60;62.80;;;13.84;90.71;96358.47;4989075;28;19916;-52
2022/10/29 07:58:38;;;;;;;;;;;19.00;62.60;;;14.05;86.82;96353.94;4964379;28;19913;-54
2022/10/29 08:01:04;;;;;;;;;;;19.30;62.30;;;14.24;86.72;96362.25;4967695;28;19988;-49
2022/10/29 08:03:33;;;;;;;;;;;19.50;61.90;;;14.46;86.38;96359.28;4967385;28;19920;-49
2022/10/29 08:05:58;;;;;;;;;;;19.80;61.60;;;14.69;85.76;96365.97;4973359;28;19913;-51
2022/10/29 08:08:25;;;;;;;;;;;20.00;62.10;;;14.90;84.04;96368.63;4958245;28;19972;-49
2022/10/29 08:10:51;;;;;;;;;;;20.20;61.00;;;15.02;80.91;96369.13;4972608;28;20526;-48
2022/10/29 08:13:17;;;;;;;;;;;20.40;60.60;;;15.10;79.80;96375.78;4968387;28;19917;-48
2022/10/29 08:15:45;;;;;;;;;;;20.60;60.30;;;15.24;79.49;96368.78;4972992;28;20276;-54
2022/10/29 08:18:16;;;;;;;;;;;20.80;60.00;;;15.37;77.13;96362.00;4952186;28;19916;-48
2022/10/29 08:20:42;;;;;;;;;;;21.00;59.80;;;15.58;77.17;96368.06;4973207;28;20356;-50
2022/10/29 08:23:08;;;;;;;;;;;21.10;59.50;;;15.69;74.04;96361.56;4957140;28;19960;-53
2022/10/29 08:25:39;;;;;;;;;;;21.40;59.40;;;15.90;74.26;96364.94;4958468;28;20511;-50
2022/10/29 08:28:07;;;;;;;;;;;21.60;59.10;;;16.07;73.44;96361.88;4959689;28;19910;-51
2022/10/29 08:30:33;;;;;;;;;;;21.80;58.90;;;16.25;73.75;96366.56;4954426;28;19914;-52
2022/10/29 08:33:00;;;;;;;;;;;22.10;58.60;;;16.54;73.83;96363.88;4954710;28;20405;-51
2022/10/29 08:35:27;;;;;;;;;;;22.40;58.40;;;16.84;72.04;96365.50;4956395;28;19921;-53
2022/10/29 08:37:53;;;;;;;;;;;22.70;58.10;;;17.10;71.11;96363.31;4956034;28;19917;-50
2022/10/29 08:40:29;;;;;;;;;;;23.00;57.80;;;17.26;69.85;96360.47;4941622;28;20357;-54
2022/10/29 08:43:28;;;;;;;;;;;23.30;58.10;;;17.55;68.86;96353.09;4963606;28;19914;-51
2022/10/29 08:45:55;;;;;;;;;;;23.60;57.20;;;17.79;67.91;96360.31;4952932;28;19924;-53
2022/10/29 08:48:33;;;;;;;;;;;24.00;56.80;;;18.04;67.92;96359.94;4961905;28;19910;-50
2022/10/29 08:51:06;;;;;;;;;;;24.30;56.50;;;18.28;67.36;96350.97;4960951;28;19921;-54
2022/10/29 08:53:46;;;;;;;;;;;24.60;56.20;;;18.54;66.03;96351.31;4958473;28;19914;-54
2022/10/29 08:56:19;;;;;;;;;;;24.90;55.80;;;18.82;65.50;96354.91;4967215;28;20732;-50
2022/10/29 08:59:09;;;;;;;;;;;25.20;55.40;;;19.08;65.08;96355.19;4948759;28;19964;-54
2022/10/29 09:01:42;;;;;;;;;;;25.50;55.20;;;19.30;63.75;96353.69;4953886;28;19910;-51
2022/10/29 09:04:35;;;;;;;;;;;25.80;55.00;;;19.56;61.71;96354.78;4958124;28;19921;-54
2022/10/29 09:07:36;;;;;;;;;;;26.00;54.60;;;19.85;59.50;96350.94;4960111;28;19910;-52
2022/10/29 09:10:40;;;;;;;;;;;26.20;54.30;;;20.14;58.94;96358.63;4955147;28;19930;-56
2022/10/29 09:13:41;;;;;;;;;;;26.60;54.00;;;20.38;56.29;96352.13;4954650;28;19914;-54
2022/10/29 09:16:41;;;;;;;;;;;26.90;53.60;;;20.51;57.79;96348.53;4924515;28;19964;-57
2022/10/29 09:20:07;;;;;;;;;;;27.00;53.20;;;20.77;56.47;96346.00;4954064;28;20062;-56
2022/10/29 09:22:54;;;;;;;;;;;27.30;52.90;;;20.79;54.72;96346.50;4918912;29;20332;-58
2022/10/29 09:25:38;;;;;;;;;;;27.40;52.40;;;20.92;53.55;96344.81;4937696;28;20368;-58
2022/10/29 09:28:37;;;;;;;;;;;27.60;52.10;;;20.94;53.43;96348.81;4951978;28;19910;-54
2022/10/29 09:31:45;;;;;;;;;;;27.80;51.70;;;20.83;53.18;96344.75;4957037;28;20295;-56
2022/10/29 09:34:37;;;;;;;;;;;28.00;51.30;;;20.92;52.60;96342.88;4946168;28;19972;-57
2022/10/29 09:37:20;;;;;;;;;;;28.10;51.00;;;21.22;51.13;96341.25;4954392;28;19917;-51
2022/10/29 09:39:47;;;;;;;;;;;28.20;50.80;;;21.48;50.23;96340.53;4959431;28;20683;-55
2022/10/29 09:42:39;;;;;;;;;;;28.40;50.60;;;21.58;51.33;96342.94;4957425;28;19916;-55
2022/10/29 09:45:12;;;;;;;;;;;28.40;50.30;;;21.45;51.02;96335.75;4958478;28;19940;-51
2022/10/29 09:47:49;;;;;;;;;;;28.60;50.20;;;21.33;51.51;96343.66;4966317;28;19918;-56
2022/10/29 09:50:39;;;;;;;;;;;28.70;49.90;;;21.35;51.48;96338.75;4951550;28;20297;-54
2022/10/29 09:53:07;;;;;;;;;;;28.80;49.60;;;21.44;51.24;96336.88;4955049;28;19928;-58
2022/10/29 09:55:52;;;;;;;;;;;28.90;49.40;;;21.60;50.52;96337.22;4957553;28;19940;-54
2022/10/29 09:58:25;;;;;;;;;;;29.00;49.10;;;21.79;50.88;96331.50;4954259;28;19913;-57
2022/10/29 10:00:53;;;;;;;;;;;29.20;49.00;;;22.05;50.95;96335.00;4950349;28;19956;-55
2022/10/29 10:03:32;;;;;;;;;;;29.40;48.80;;;22.33;48.54;96335.50;4966139;28;19933;-54
2022/10/29 10:06:20;;;;;;;;;;;29.60;48.50;;;22.63;48.62;96336.41;4956974;28;20003;-54
2022/10/29 10:09:00;;;;;;;;;;;29.80;48.30;;;22.98;47.02;96340.94;4961051;28;19980;-58
2022/10/29 10:11:41;;;;;;;;;;;30.10;48.10;;;23.29;45.72;96330.56;4957711;28;19917;-51
2022/10/29 10:14:19;;;;;;;;;;;30.30;47.70;;;23.59;44.73;96330.53;4938482;28;19918;-56
2022/10/29 10:16:45;;;;;;;;;;;30.60;47.40;;;23.62;45.32;96329.88;4950196;28;20438;-55
2022/10/29 10:19:31;;;;;;;;;;;30.90;47.10;;;23.80;45.41;96335.25;4958838;28;19910;-57
2022/10/29 10:22:01;;;;;;;;;;;31.20;46.80;;;23.85;45.05;96333.13;4962029;28;19917;-55
2022/10/29 10:24:34;;;;;;;;;;;31.50;46.50;;;24.17;43.83;96325.34;4957598;28;19976;-56
2022/10/29 10:27:21;;;;;;;;;;;31.70;46.20;;;24.32;44.29;96318.44;4941802;28;20075;-54
2022/10/29 10:30:16;;;;;;;;;;;31.90;45.90;;;24.54;43.92;96320.84;4956517;28;19929;-52
2022/10/29 10:32:42;;;;;;;;;;;32.20;45.50;;;24.69;42.88;96322.91;4956920;28;20211;-54
2022/10/29 10:35:30;;;;;;;;;;;32.40;45.30;;;24.77;43.48;96323.16;4955344;28;20016;-56
2022/10/29 10:37:58;;;;;;;;;;;32.50;45.00;;;24.69;43.35;96314.75;4961450;28;20325;-56
2022/10/29 10:40:25;;;;;;;;;;;32.60;44.80;;;24.59;43.15;96312.44;4944256;28;19921;-58
2022/10/29 10:42:54;;;;;;;;;;;32.70;44.50;;;24.78;42.51;96316.56;4955025;28;19910;-58
2022/10/29 10:45:30;;;;;;;;;;;32.80;44.30;;;24.82;42.73;96312.84;4950940;28;19910;-55
2022/10/29 10:48:00;;;;;;;;;;;32.80;44.00;;;24.80;42.82;96309.66;4964202;28;19917;-56
2022/10/29 10:50:31;;;;;;;;;;;32.70;43.80;;;24.62;43.29;96302.81;4941158;28;20000;-55
2022/10/29 10:53:05;;;;;;;;;;;32.70;43.60;;;24.39;43.59;96294.22;4954242;28;19953;-52
2022/10/29 10:55:37;;;;;;;;;;;32.60;43.50;;;24.42;44.35;96288.94;4955780;28;19964;-52
2022/10/29 10:58:17;;;;;;;;;;;32.50;43.40;;;24.53;43.97;96277.59;4946634;28;19941;-55
2022/10/29 11:00:55;;;;;;;;;;;32.40;43.40;;;24.43;43.91;96276.09;4964180;28;19909;-57
2022/10/29 11:03:36;;;;;;;;;;;32.40;43.30;;;24.40;44.20;96279.47;4952162;28;19917;-56
2022/10/29 11:06:27;;;;;;;;;;;32.40;43.30;;;24.35;43.88;96283.22;4966771;28;20328;-59
2022/10/29 11:09:27;;;;;;;;;;;32.30;43.20;;;24.46;43.82;96275.44;4959600;28;21233;-58
2022/10/29 11:12:12;;;;;;;;;;;32.30;43.10;;;24.50;43.22;96275.53;4958916;28;20289;-55
2022/10/29 11:14:54;;;;;;;;;;;32.40;42.90;;;24.59;42.91;96273.53;4960406;28;19918;-58
2022/10/29 11:17:37;;;;;;;;;;;32.40;42.70;;;24.69;42.14;96271.16;4940333;28;19910;-54
2022/10/29 11:20:18;;;;;;;;;;;32.50;42.70;;;24.48;42.69;96264.22;4955786;28;19910;-57
2022/10/29 11:23:01;;;;;;;;;;;32.50;42.50;;;24.63;42.30;96260.81;4966153;28;19917;-54
2022/10/29 11:25:43;;;;;;;;;;;32.60;42.40;;;24.77;41.35;96247.66;4952843;28;20116;-57
2022/10/29 11:28:39;;;;;;;;;;;32.60;42.20;;;24.78;42.08;96251.97;4962207;28;19920;-57
2022/10/29 11:31:34;;;;;;;;;;;32.60;42.00;;;24.72;41.40;96245.16;4971451;28;19945;-58
2022/10/29 11:34:57;;;;;;;;;;;32.70;41.90;;;24.99;41.88;96242.91;4962437;28;19925;-58
2022/10/29 11:37:52;;;;;;;;;;;32.70;41.70;;;25.10;39.56;96244.03;4961420;28;19971;-58
2022/10/29 11:40:26;;;;;;;;;;;32.70;41.60;;;25.28;39.83;96234.50;4945939;28;20293;-52
2022/10/29 11:42:51;;;;;;;;;;;32.70;41.50;;;25.05;39.39;96239.59;4954291;28;19976;-57
2022/10/29 11:45:58;;;;;;;;;;;32.70;41.40;;;25.01;40.61;96224.25;4955221;28;20372;-54
2022/10/29 11:49:02;;;;;;;;;;;32.60;41.20;;;25.13;41.71;96230.56;4956620;28;19980;-58
2022/10/29 11:52:04;;;;;;;;;;;32.60;41.10;;;25.29;39.58;96227.09;4953924;28;19914;-59
2022/10/29 11:54:42;;;;;;;;;;;32.60;41.00;;;25.27;41.45;96223.94;4954245;28;20293;-54